Portlaoise, Ireland
Current Conditions -  °F | °C
As of 6:00 AM on Wednesday 28 Jan 2015 (Local Time) from EIME Reporting Station
Light Rain Light Rain  
Wind Chill: 36°   Ceiling: 2400
Heat Index: 45°   Visibility: 6mi
Dew Point: 43°   Wind: 23mph
Humidity: 93%   Direction: 270°W
Pressure: 29.53"   Gusts: NA
Location:  53.04°N, 7.3°W
Report Text: EIME 280600Z 27020KT 9999 -RA FEW013 BKN024 07/06 Q1000
Loading
Personal Weather Stations






























Interactive Weather Map New forecast layout! Learn more

10-Day Weather Forecast

Advertisements
Track Severe Weather on mobile